Time;durP1;ratioP1;P1;durP2;ratioP2;P2;SDS_P1;SDS_P2;PMS_P1;PMS_P2;Temp;Humidity;BMP_temperature;BMP_pressure;BME280_temperature;BME280_humidity;BME280_pressure;Samples;Min_cycle;Max_cycle;Signal;HPM_P1;HPM_P2
2023/04/02 00:00:10;;;;;;;;;3.00;2.25;;;;;;;;6336656;22;46465;-82
2023/04/02 00:02:44;;;;;;;;;6.00;3.00;;;;;;;;6337248;22;45650;-82
2023/04/02 00:05:15;;;;;;;;;5.50;2.00;;;;;;;;6336021;22;45241;-82
2023/04/02 00:07:43;;;;;;;;;2.00;2.00;;;;;;;;6338109;22;45336;-81
2023/04/02 00:10:47;;;;;;;;;5.00;2.00;;;;;;;;6336968;22;46398;-82
2023/04/02 00:13:12;;;;;;;;;8.25;1.75;;;;;;;;6211698;22;45296;-82
2023/04/02 00:15:39;;;;;;;;;1.00;1.00;;;;;;;;6212617;22;45665;-82
2023/04/02 00:18:04;;;;;;;;;4.25;2.75;;;;;;;;6211280;22;45347;-82
2023/04/02 00:20:33;;;;;;;;;3.50;2.25;;;;;;;;6210858;22;45311;-82
2023/04/02 00:22:58;;;;;;;;;6.50;3.00;;;;;;;;6184365;22;46008;-83
2023/04/02 00:25:25;;;;;;;;;7.00;2.00;;;;;;;;6210920;22;45425;-83
2023/04/02 00:27:50;;;;;;;;;2.50;2.00;;;;;;;;6211170;22;45282;-83
2023/04/02 00:30:16;;;;;;;;;9.75;3.00;;;;;;;;6211495;22;46486;-83
2023/04/02 00:32:41;;;;;;;;;5.00;2.00;;;;;;;;6211190;22;45327;-83
2023/04/02 00:35:18;;;;;;;;;3.00;2.00;;;;;;;;6185037;22;45213;-83
2023/04/02 00:37:43;;;;;;;;;4.50;2.00;;;;;;;;6210813;22;45297;-83
2023/04/02 00:40:15;;;;;;;;;2.25;1.50;;;;;;;;6210702;22;45501;-82
2023/04/02 00:42:41;;;;;;;;;5.00;1.25;;;;;;;;6211030;22;45745;-82
2023/04/02 00:45:17;;;;;;;;;2.00;1.00;;;;;;;;6335231;22;45268;-82
2023/04/02 00:47:43;;;;;;;;;2.50;2.00;;;;;;;;6337220;22;45418;-83
2023/04/02 00:50:09;;;;;;;;;5.75;2.75;;;;;;;;6337152;22;45384;-82
2023/04/02 00:52:35;;;;;;;;;5.00;1.00;;;;;;;;6336774;22;45354;-82
2023/04/02 00:55:06;;;;;;;;;5.00;2.25;;;;;;;;6336848;22;45228;-82
2023/04/02 00:57:32;;;;;;;;;3.50;3.50;;;;;;;;6337219;22;45221;-83
2023/04/02 00:59:57;;;;;;;;;3.00;1.50;;;;;;;;6336933;22;46040;-83
2023/04/02 01:02:25;;;;;;;;;2.00;2.00;;;;;;;;6335099;22;45242;-82
2023/04/02 01:04:51;;;;;;;;;5.50;2.00;;;;;;;;6337249;22;45222;-83
2023/04/02 01:07:17;;;;;;;;;4.25;2.75;;;;;;;;6336566;22;45381;-83
2023/04/02 01:10:00;;;;;;;;;3.00;1.50;;;;;;;;6334529;22;46145;-82
2023/04/02 01:12:38;;;;;;;;;5.50;4.00;;;;;;;;6336675;22;45304;-82
2023/04/02 01:15:10;;;;;;;;;1.25;1.00;;;;;;;;6336788;22;45311;-82
2023/04/02 01:17:35;;;;;;;;;6.50;1.00;;;;;;;;6336569;22;45402;-82
2023/04/02 01:20:00;;;;;;;;;4.33;2.00;;;;;;;;6336900;22;45365;-82
2023/04/02 01:22:33;;;;;;;;;1.33;0.00;;;;;;;;6336704;22;45279;-82
2023/04/02 01:24:59;;;;;;;;;3.00;1.00;;;;;;;;6336716;22;45193;-82
2023/04/02 01:27:27;;;;;;;;;1.00;1.00;;;;;;;;6336904;22;45225;-82
2023/04/02 01:29:55;;;;;;;;;1.75;1.00;;;;;;;;6336320;22;45382;-82
2023/04/02 01:32:21;;;;;;;;;2.00;1.00;;;;;;;;6336758;22;45343;-83
2023/04/02 01:34:48;;;;;;;;;1.00;1.00;;;;;;;;6337144;22;45264;-83
2023/04/02 01:37:13;;;;;;;;;1.00;1.00;;;;;;;;6336129;22;45098;-83
2023/04/02 01:39:52;;;;;;;;;0.00;0.00;;;;;;;;6337001;22;46408;-83
2023/04/02 01:42:17;;;;;;;;;2.25;0.00;;;;;;;;6336704;22;45304;-83
2023/04/02 01:44:50;;;;;;;;;2.00;0.00;;;;;;;;6337219;22;45320;-83
2023/04/02 01:47:17;;;;;;;;;1.50;0.00;;;;;;;;6337414;22;45206;-84
2023/04/02 01:49:43;;;;;;;;;1.00;0.50;;;;;;;;6336091;22;45416;-81
2023/04/02 01:52:12;;;;;;;;;1.75;0.50;;;;;;;;6336384;22;45276;-83
2023/04/02 01:54:38;;;;;;;;;0.75;0.00;;;;;;;;6336985;22;45232;-83
2023/04/02 01:57:03;;;;;;;;;0.25;0.00;;;;;;;;6337265;22;45411;-83
2023/04/02 01:59:32;;;;;;;;;1.50;1.00;;;;;;;;6338130;22;45476;-84
2023/04/02 02:02:00;;;;;;;;;0.00;0.00;;;;;;;;6338739;22;46039;-83
2023/04/02 02:04:25;;;;;;;;;0.00;0.00;;;;;;;;6336573;22;45311;-83
2023/04/02 02:06:51;;;;;;;;;1.00;1.00;;;;;;;;6335127;22;45389;-83
2023/04/02 02:09:21;;;;;;;;;1.00;1.00;;;;;;;;6336957;22;45369;-81
2023/04/02 02:11:47;;;;;;;;;0.50;0.50;;;;;;;;6336446;22;45307;-83
2023/04/02 02:14:17;;;;;;;;;1.25;1.00;;;;;;;;6337328;22;45239;-83
2023/04/02 02:16:44;;;;;;;;;1.00;1.00;;;;;;;;6336445;22;45280;-84
2023/04/02 02:19:21;;;;;;;;;1.00;1.00;;;;;;;;6335765;22;45329;-83
2023/04/02 02:21:51;;;;;;;;;1.00;1.00;;;;;;;;6336880;22;45329;-84
2023/04/02 02:24:22;;;;;;;;;1.00;1.00;;;;;;;;6335906;22;45302;-83
2023/04/02 02:26:49;;;;;;;;;0.25;0.25;;;;;;;;6336297;22;45620;-83
2023/04/02 02:29:17;;;;;;;;;1.50;1.00;;;;;;;;6336196;22;47441;-83
2023/04/02 02:31:44;;;;;;;;;0.00;0.00;;;;;;;;6336624;22;45367;-82
2023/04/02 02:34:14;;;;;;;;;2.00;0.25;;;;;;;;6336651;22;45212;-83
2023/04/02 02:36:58;;;;;;;;;1.00;0.25;;;;;;;;6336896;22;45284;-83
2023/04/02 02:39:35;;;;;;;;;1.50;1.00;;;;;;;;6336669;22;45349;-83
2023/04/02 02:42:03;;;;;;;;;0.00;0.00;;;;;;;;6336342;22;45344;-83
2023/04/02 02:44:32;;;;;;;;;2.00;0.75;;;;;;;;6336691;22;45276;-83
2023/04/02 02:47:01;;;;;;;;;0.25;0.00;;;;;;;;6336421;22;45300;-83
2023/04/02 02:49:29;;;;;;;;;0.00;0.00;;;;;;;;6336730;22;45463;-82
2023/04/02 02:52:00;;;;;;;;;1.00;1.00;;;;;;;;6336449;22;45275;-81
2023/04/02 02:54:26;;;;;;;;;0.50;0.00;;;;;;;;6336148;22;45324;-82
2023/04/02 02:56:55;;;;;;;;;1.00;0.00;;;;;;;;6336760;22;45420;-82
2023/04/02 02:59:21;;;;;;;;;0.00;0.00;;;;;;;;6336614;22;46211;-82
2023/04/02 03:01:46;;;;;;;;;0.50;0.50;;;;;;;;6335902;22;45265;-83
2023/04/02 03:04:12;;;;;;;;;0.00;0.00;;;;;;;;6336722;22;45253;-81
2023/04/02 03:06:39;;;;;;;;;0.00;0.00;;;;;;;;6336724;22;45335;-82
2023/04/02 03:09:13;;;;;;;;;0.00;0.00;;;;;;;;6335781;22;47108;-83
2023/04/02 03:11:42;;;;;;;;;0.00;0.00;;;;;;;;6336026;22;45294;-82
2023/04/02 03:14:15;;;;;;;;;0.00;0.00;;;;;;;;6336624;22;45216;-83
2023/04/02 03:16:44;;;;;;;;;1.00;0.00;;;;;;;;6335751;22;45302;-83
2023/04/02 03:19:19;;;;;;;;;0.00;0.00;;;;;;;;6335914;22;45728;-83
2023/04/02 03:21:52;;;;;;;;;0.00;0.00;;;;;;;;6336269;22;45303;-83
2023/04/02 03:24:31;;;;;;;;;0.50;0.00;;;;;;;;6336730;22;45342;-82
2023/04/02 03:27:05;;;;;;;;;1.00;0.00;;;;;;;;6335770;22;45411;-83
2023/04/02 03:29:35;;;;;;;;;0.50;0.50;;;;;;;;6335886;22;47086;-82
2023/04/02 03:32:04;;;;;;;;;2.00;2.00;;;;;;;;6335333;22;45280;-83
2023/04/02 03:34:33;;;;;;;;;6.00;1.00;;;;;;;;6335970;22;45316;-83
2023/04/02 03:37:06;;;;;;;;;1.00;0.00;;;;;;;;6335739;22;45473;-82
2023/04/02 03:39:32;;;;;;;;;0.50;0.25;;;;;;;;6335504;22;46281;-83
2023/04/02 03:42:04;;;;;;;;;1.33;1.33;;;;;;;;6308200;22;45374;-82
2023/04/02 03:44:36;;;;;;;;;1.00;1.00;;;;;;;;6335828;22;45178;-82
2023/04/02 03:47:11;;;;;;;;;2.00;2.00;;;;;;;;6335001;22;45365;-83
2023/04/02 03:49:43;;;;;;;;;3.50;2.00;;;;;;;;6336071;22;45695;-83
2023/04/02 03:52:13;;;;;;;;;10.00;1.50;;;;;;;;6335843;22;45300;-83
2023/04/02 03:54:39;;;;;;;;;6.25;2.00;;;;;;;;6335708;22;45285;-83
2023/04/02 03:57:10;;;;;;;;;1.50;1.50;;;;;;;;6335630;22;45304;-82
2023/04/02 03:59:40;;;;;;;;;7.50;3.00;;;;;;;;6336007;22;46637;-82
2023/04/02 04:02:24;;;;;;;;;3.00;3.00;;;;;;;;6335068;22;45166;-82
2023/04/02 04:04:50;;;;;;;;;5.50;5.50;;;;;;;;6335851;22;45194;-82
2023/04/02 04:07:21;;;;;;;;;8.00;3.50;;;;;;;;6336154;22;45197;-82
2023/04/02 04:09:49;;;;;;;;;11.50;3.00;;;;;;;;6336079;22;45487;-82
2023/04/02 04:12:17;;;;;;;;;10.75;5.00;;;;;;;;6336386;22;45175;-82
2023/04/02 04:14:45;;;;;;;;;3.50;3.00;;;;;;;;6307684;22;45416;-83
2023/04/02 04:17:15;;;;;;;;;8.25;2.75;;;;;;;;6336924;22;45352;-82
2023/04/02 04:19:45;;;;;;;;;3.00;3.00;;;;;;;;6335722;22;45350;-82
2023/04/02 04:22:37;;;;;;;;;5.75;4.50;;;;;;;;6307385;22;45688;-83
2023/04/02 04:25:05;;;;;;;;;6.00;2.00;;;;;;;;6288139;22;45591;-83
2023/04/02 04:27:34;;;;;;;;;7.75;5.00;;;;;;;;6335480;22;45397;-83
2023/04/02 04:30:05;;;;;;;;;9.25;2.50;;;;;;;;6334547;22;45461;-82
2023/04/02 04:32:38;;;;;;;;;5.50;3.00;;;;;;;;6335883;22;45700;-83
2023/04/02 04:35:14;;;;;;;;;10.00;5.00;;;;;;;;6308064;22;45274;-82
2023/04/02 04:37:42;;;;;;;;;9.75;5.00;;;;;;;;6336257;22;45291;-83
2023/04/02 04:40:10;;;;;;;;;10.25;6.75;;;;;;;;6335805;22;46525;-82
2023/04/02 04:42:38;;;;;;;;;10.25;5.75;;;;;;;;6336250;22;45678;-83
2023/04/02 04:45:06;;;;;;;;;10.00;5.00;;;;;;;;6335343;22;45265;-82
2023/04/02 04:47:34;;;;;;;;;7.00;5.25;;;;;;;;6336838;22;45512;-82
2023/04/02 04:50:05;;;;;;;;;10.50;5.00;;;;;;;;6336201;22;45266;-82
2023/04/02 04:52:35;;;;;;;;;6.75;5.00;;;;;;;;6337310;22;45706;-83
2023/04/02 04:55:01;;;;;;;;;12.00;7.00;;;;;;;;6337021;22;45254;-83
2023/04/02 04:57:37;;;;;;;;;6.50;6.00;;;;;;;;6337000;22;45334;-82
2023/04/02 05:00:12;;;;;;;;;14.00;7.75;;;;;;;;6335842;22;45540;-82
2023/04/02 05:02:41;;;;;;;;;9.25;6.25;;;;;;;;6336516;22;45269;-82
2023/04/02 05:05:16;;;;;;;;;6.50;5.75;;;;;;;;6336819;22;45294;-82
2023/04/02 05:07:44;;;;;;;;;9.50;5.00;;;;;;;;6336447;22;45384;-82
2023/04/02 05:10:09;;;;;;;;;8.75;5.50;;;;;;;;6336766;22;46165;-82
2023/04/02 05:12:38;;;;;;;;;6.00;5.00;;;;;;;;6308143;22;45324;-82
2023/04/02 05:15:22;;;;;;;;;6.75;6.00;;;;;;;;6337342;22;45334;-82
2023/04/02 05:17:52;;;;;;;;;9.75;6.50;;;;;;;;6337225;22;45336;-81
2023/04/02 05:20:21;;;;;;;;;9.75;6.50;;;;;;;;6308478;22;48397;-81
2023/04/02 05:22:53;;;;;;;;;8.75;5.50;;;;;;;;6336833;22;45895;-81
2023/04/02 05:25:23;;;;;;;;;10.50;8.25;;;;;;;;6336509;22;45312;-82
2023/04/02 05:27:53;;;;;;;;;12.75;6.75;;;;;;;;6336406;22;45372;-82
2023/04/02 05:30:24;;;;;;;;;10.75;6.50;;;;;;;;6336366;22;46300;-82
2023/04/02 05:32:53;;;;;;;;;5.25;5.25;;;;;;;;6336176;22;45328;-82
2023/04/02 05:35:21;;;;;;;;;7.00;5.50;;;;;;;;6336590;22;45264;-81
2023/04/02 05:37:47;;;;;;;;;14.25;6.50;;;;;;;;6336577;22;45366;-82
2023/04/02 05:40:26;;;;;;;;;8.25;5.25;;;;;;;;6336060;22;46693;-82
2023/04/02 05:42:52;;;;;;;;;5.50;5.00;;;;;;;;6336515;22;45678;-82
2023/04/02 05:45:26;;;;;;;;;7.25;6.25;;;;;;;;6336525;22;45295;-82
2023/04/02 05:47:58;;;;;;;;;10.00;6.75;;;;;;;;6337181;22;45534;-83
2023/04/02 05:50:29;;;;;;;;;11.00;7.00;;;;;;;;6336034;22;46670;-83
2023/04/02 05:53:14;;;;;;;;;5.00;3.50;;;;;;;;6336959;22;45703;-83
2023/04/02 05:55:39;;;;;;;;;8.25;5.75;;;;;;;;6286990;22;45262;-84
2023/04/02 05:58:07;;;;;;;;;8.33;5.33;;;;;;;;6341868;22;45272;-83
2023/04/02 06:00:35;;;;;;;;;6.00;6.00;;;;;;;;6340366;22;45441;-83
2023/04/02 06:03:06;;;;;;;;;5.25;5.00;;;;;;;;6336442;22;45578;-84
2023/04/02 06:05:41;;;;;;;;;6.00;3.50;;;;;;;;6336777;22;45218;-83
2023/04/02 06:08:12;;;;;;;;;6.25;6.00;;;;;;;;6336680;22;45445;-84
2023/04/02 06:10:50;;;;;;;;;5.25;5.00;;;;;;;;6336183;22;45487;-84
2023/04/02 06:13:17;;;;;;;;;13.00;5.00;;;;;;;;6336249;22;45182;-83
2023/04/02 06:15:42;;;;;;;;;3.50;3.50;;;;;;;;6308364;22;45369;-84
2023/04/02 06:18:24;;;;;;;;;6.00;3.00;;;;;;;;6336810;22;45323;-84
2023/04/02 06:20:50;;;;;;;;;2.75;2.75;;;;;;;;6336144;22;45402;-82
2023/04/02 06:23:31;;;;;;;;;6.00;3.00;;;;;;;;6336080;22;45284;-82
2023/04/02 06:25:59;;;;;;;;;7.75;5.00;;;;;;;;6335992;22;45273;-81
2023/04/02 06:28:27;;;;;;;;;9.50;5.00;;;;;;;;6336218;22;45483;-82
2023/04/02 06:30:55;;;;;;;;;3.00;2.00;;;;;;;;6336450;22;45359;-80
2023/04/02 06:33:20;;;;;;;;;4.75;2.75;;;;;;;;6336409;22;45675;-81
2023/04/02 06:35:47;;;;;;;;;7.67;4.33;;;;;;;;6336552;22;45335;-82
2023/04/02 06:38:24;;;;;;;;;9.00;3.50;;;;;;;;6336385;22;45482;-81
2023/04/02 06:40:56;;;;;;;;;5.25;5.00;;;;;;;;6335536;22;46269;-81
2023/04/02 06:43:42;;;;;;;;;9.00;5.50;;;;;;;;6336405;22;45720;-82
2023/04/02 06:46:12;;;;;;;;;5.50;2.00;;;;;;;;6336748;22;45271;-82
2023/04/02 06:48:38;;;;;;;;;9.50;5.00;;;;;;;;6336235;22;45295;-83
2023/04/02 06:51:06;;;;;;;;;7.00;4.75;;;;;;;;6335803;22;46452;-83
2023/04/02 06:53:34;;;;;;;;;6.75;3.50;;;;;;;;6336618;22;45328;-82
2023/04/02 06:56:19;;;;;;;;;7.00;5.00;;;;;;;;6335609;22;45167;-81
2023/04/02 06:58:45;;;;;;;;;6.50;3.00;;;;;;;;6335828;22;45540;-82
2023/04/02 07:01:18;;;;;;;;;6.00;4.50;;;;;;;;6335702;22;46122;-82
2023/04/02 07:03:43;;;;;;;;;6.25;3.00;;;;;;;;6336284;22;45144;-82
2023/04/02 07:06:13;;;;;;;;;5.33;5.00;;;;;;;;6336236;22;45344;-81
2023/04/02 07:08:38;;;;;;;;;5.00;4.50;;;;;;;;6335266;22;45402;-81
2023/04/02 07:11:03;;;;;;;;;5.00;5.00;;;;;;;;6336027;22;46029;-82
2023/04/02 07:13:29;;;;;;;;;11.00;6.00;;;;;;;;6335762;22;45285;-80
2023/04/02 07:15:55;;;;;;;;;5.75;4.50;;;;;;;;6335783;22;45223;-81
2023/04/02 07:18:30;;;;;;;;;8.50;4.00;;;;;;;;6336212;22;45252;-80
2023/04/02 07:20:55;;;;;;;;;6.00;6.00;;;;;;;;6336435;22;45339;-81
2023/04/02 07:23:20;;;;;;;;;4.00;3.00;;;;;;;;6335086;22;45246;-83
2023/04/02 07:25:49;;;;;;;;;9.25;3.00;;;;;;;;6336105;22;45241;-83
2023/04/02 07:28:15;;;;;;;;;9.00;3.00;;;;;;;;6336644;22;45183;-83
2023/04/02 07:30:40;;;;;;;;;5.75;5.00;;;;;;;;6335920;22;46141;-83
2023/04/02 07:33:05;;;;;;;;;3.50;1.00;;;;;;;;6336971;22;45300;-83
2023/04/02 07:35:30;;;;;;;;;9.25;5.00;;;;;;;;6336357;22;45143;-83
2023/04/02 07:37:55;;;;;;;;;7.00;5.00;;;;;;;;6336329;22;45147;-83
2023/04/02 07:40:22;;;;;;;;;10.00;5.67;;;;;;;;6336420;22;45173;-82
2023/04/02 07:42:48;;;;;;;;;5.75;5.00;;;;;;;;6336087;22;45300;-83
2023/04/02 07:45:14;;;;;;;;;7.25;6.00;;;;;;;;6337143;22;45271;-82
2023/04/02 07:47:39;;;;;;;;;10.25;6.00;;;;;;;;6336611;22;45379;-83
2023/04/02 07:50:05;;;;;;;;;9.67;7.00;;;;;;;;6335792;22;46289;-82
2023/04/02 07:52:30;;;;;;;;;4.50;4.00;;;;;;;;6335061;22;45542;-83
2023/04/02 07:54:56;;;;;;;;;5.50;5.25;;;;;;;;6335856;22;45368;-82
2023/04/02 07:57:21;;;;;;;;;3.00;1.00;;;;;;;;6336176;22;45419;-82
2023/04/02 07:59:46;;;;;;;;;11.00;6.00;;;;;;;;6335343;22;45416;-82
2023/04/02 08:02:18;;;;;;;;;9.50;5.00;;;;;;;;6335568;22;45368;-83
2023/04/02 08:04:43;;;;;;;;;9.00;6.00;;;;;;;;6336282;22;45273;-82
2023/04/02 08:07:08;;;;;;;;;7.00;3.00;;;;;;;;6335612;22;45356;-83
2023/04/02 08:09:33;;;;;;;;;12.33;7.00;;;;;;;;6335306;22;45331;-82
2023/04/02 08:11:58;;;;;;;;;17.33;10.33;;;;;;;;6335958;22;45293;-82
2023/04/02 08:14:23;;;;;;;;;12.33;6.00;;;;;;;;6336368;22;45238;-82
2023/04/02 08:16:54;;;;;;;;;13.33;9.67;;;;;;;;6335992;22;45296;-82
2023/04/02 08:19:19;;;;;;;;;10.25;7.00;;;;;;;;6335141;22;45309;-81
2023/04/02 08:21:46;;;;;;;;;17.75;8.50;;;;;;;;6336554;22;45257;-81
2023/04/02 08:24:12;;;;;;;;;19.25;11.75;;;;;;;;6337270;22;45234;-81
2023/04/02 08:26:37;;;;;;;;;11.00;9.00;;;;;;;;6337258;22;45374;-80
2023/04/02 08:29:02;;;;;;;;;10.33;6.00;;;;;;;;6336948;22;45510;-81
2023/04/02 08:31:29;;;;;;;;;18.25;12.25;;;;;;;;6336696;22;45299;-81
2023/04/02 08:33:55;;;;;;;;;10.75;9.00;;;;;;;;6336962;22;45243;-81
2023/04/02 08:36:23;;;;;;;;;11.25;9.25;;;;;;;;6336347;22;45401;-81
2023/04/02 08:38:49;;;;;;;;;12.50;6.25;;;;;;;;6336543;22;45279;-81
2023/04/02 08:41:26;;;;;;;;;10.50;6.00;;;;;;;;6336760;22;45678;-81
2023/04/02 08:43:59;;;;;;;;;9.00;6.25;;;;;;;;6336870;22;45314;-81
2023/04/02 08:46:29;;;;;;;;;8.00;7.00;;;;;;;;6336880;22;45239;-82
2023/04/02 08:48:56;;;;;;;;;12.50;6.50;;;;;;;;6337034;22;46309;-82
2023/04/02 08:51:29;;;;;;;;;7.25;4.00;;;;;;;;6336597;22;45300;-82
2023/04/02 08:53:57;;;;;;;;;7.50;6.25;;;;;;;;6337223;22;45304;-82
2023/04/02 08:56:43;;;;;;;;;4.75;3.50;;;;;;;;6337180;22;45179;-83
2023/04/02 08:59:17;;;;;;;;;10.00;4.50;;;;;;;;6335202;22;46533;-82
2023/04/02 09:02:05;;;;;;;;;6.50;2.25;;;;;;;;6335630;22;45817;-82
2023/04/02 09:04:32;;;;;;;;;11.50;6.50;;;;;;;;6336156;22;45265;-83
2023/04/02 09:06:58;;;;;;;;;6.00;6.00;;;;;;;;6336892;22;45280;-84
2023/04/02 09:09:23;;;;;;;;;10.75;7.00;;;;;;;;6336693;22;46216;-83
2023/04/02 09:12:02;;;;;;;;;13.50;6.25;;;;;;;;6336665;22;45365;-82
2023/04/02 09:14:46;;;;;;;;;7.00;6.00;;;;;;;;6336601;22;45370;-81
2023/04/02 09:17:21;;;;;;;;;11.00;9.25;;;;;;;;6336563;22;45402;-78
2023/04/02 09:20:07;;;;;;;;;11.00;7.00;;;;;;;;6335821;22;46606;-80
2023/04/02 09:22:33;;;;;;;;;12.50;6.00;;;;;;;;6334306;22;45217;-81
2023/04/02 09:25:00;;;;;;;;;16.50;9.50;;;;;;;;6336742;22;45275;-81
2023/04/02 09:27:27;;;;;;;;;9.00;7.00;;;;;;;;6337001;22;45436;-81
2023/04/02 09:29:55;;;;;;;;;11.50;7.75;;;;;;;;6336112;22;46321;-81
2023/04/02 09:32:21;;;;;;;;;12.00;6.00;;;;;;;;6308498;22;45454;-81
2023/04/02 09:34:46;;;;;;;;;12.50;8.25;;;;;;;;6337100;22;45316;-81
2023/04/02 09:37:18;;;;;;;;;9.25;7.25;;;;;;;;6337197;22;45412;-81
2023/04/02 09:39:43;;;;;;;;;10.75;8.25;;;;;;;;6336973;22;46200;-82
2023/04/02 09:42:27;;;;;;;;;8.25;4.50;;;;;;;;6308831;22;45645;-81
2023/04/02 09:45:10;;;;;;;;;8.75;6.25;;;;;;;;6336624;22;45249;-81
2023/04/02 09:47:36;;;;;;;;;9.75;5.50;;;;;;;;6337315;22;45187;-82
2023/04/02 09:50:19;;;;;;;;;11.50;6.50;;;;;;;;6335189;22;45385;-81
2023/04/02 09:52:45;;;;;;;;;10.50;7.50;;;;;;;;6336174;22;45565;-82
2023/04/02 09:55:13;;;;;;;;;8.75;7.25;;;;;;;;6336438;22;45292;-80
2023/04/02 09:57:38;;;;;;;;;7.50;7.00;;;;;;;;6336537;22;45194;-81
2023/04/02 10:00:15;;;;;;;;;8.33;6.00;;;;;;;;6337743;22;45515;-80
2023/04/02 10:02:41;;;;;;;;;9.25;7.50;;;;;;;;6336191;22;45293;-81
2023/04/02 10:05:16;;;;;;;;;8.50;5.75;;;;;;;;6336866;22;45397;-82
2023/04/02 10:07:42;;;;;;;;;9.25;5.00;;;;;;;;6337017;22;45307;-81
2023/04/02 10:10:26;;;;;;;;;7.75;5.00;;;;;;;;6336349;22;45633;-82
2023/04/02 10:13:12;;;;;;;;;6.00;5.50;;;;;;;;6336578;22;45691;-82
2023/04/02 10:15:46;;;;;;;;;8.25;3.00;;;;;;;;6308808;22;45203;-81
2023/04/02 10:18:14;;;;;;;;;7.75;6.25;;;;;;;;6336278;22;45416;-80
2023/04/02 10:20:41;;;;;;;;;7.25;6.00;;;;;;;;6336112;22;47138;-82
2023/04/02 10:23:14;;;;;;;;;14.00;7.00;;;;;;;;6336612;22;45254;-81
2023/04/02 10:25:41;;;;;;;;;10.00;6.00;;;;;;;;6336178;22;45418;-82
2023/04/02 10:28:19;;;;;;;;;7.75;4.50;;;;;;;;6337141;22;45236;-82
2023/04/02 10:31:07;;;;;;;;;8.25;6.75;;;;;;;;6336050;22;47242;-81
2023/04/02 10:33:35;;;;;;;;;7.75;5.75;;;;;;;;6307655;22;45351;-80
2023/04/02 10:36:01;;;;;;;;;12.00;7.25;;;;;;;;6335740;22;45314;-80
2023/04/02 10:38:26;;;;;;;;;11.00;8.33;;;;;;;;6336812;22;45667;-80
2023/04/02 10:40:58;;;;;;;;;10.67;6.67;;;;;;;;6336058;22;46010;-81
2023/04/02 10:43:26;;;;;;;;;11.25;7.75;;;;;;;;6335875;22;45177;-83
2023/04/02 10:46:03;;;;;;;;;6.75;5.75;;;;;;;;6336590;22;45218;-81
2023/04/02 10:48:31;;;;;;;;;10.50;8.25;;;;;;;;6336578;22;45315;-83
2023/04/02 10:51:02;;;;;;;;;12.00;8.25;;;;;;;;6336215;22;45429;-81
2023/04/02 10:53:30;;;;;;;;;9.25;7.00;;;;;;;;6307778;22;45837;-83
2023/04/02 10:56:02;;;;;;;;;12.00;10.75;;;;;;;;6335871;22;45309;-84
2023/04/02 10:58:29;;;;;;;;;10.00;10.00;;;;;;;;6336102;22;45422;-84
2023/04/02 11:00:58;;;;;;;;;12.75;6.00;;;;;;;;6336164;22;45449;-83
2023/04/02 11:03:26;;;;;;;;;17.25;11.25;;;;;;;;6335819;22;45632;-82
2023/04/02 11:05:56;;;;;;;;;11.00;7.50;;;;;;;;6336757;22;45209;-84
2023/04/02 11:08:40;;;;;;;;;11.00;8.25;;;;;;;;6336381;22;45430;-84
2023/04/02 11:11:06;;;;;;;;;13.50;11.00;;;;;;;;6335826;22;46511;-83
2023/04/02 11:13:36;;;;;;;;;15.75;10.00;;;;;;;;6335899;22;45559;-82
2023/04/02 11:16:02;;;;;;;;;13.00;10.00;;;;;;;;6335645;22;45442;-81
2023/04/02 11:18:32;;;;;;;;;10.50;8.00;;;;;;;;6336197;22;45281;-82
2023/04/02 11:21:00;;;;;;;;;15.50;9.00;;;;;;;;6336307;22;46170;-80
2023/04/02 11:23:27;;;;;;;;;12.00;8.00;;;;;;;;6336172;22;45145;-82
2023/04/02 11:26:12;;;;;;;;;13.00;10.50;;;;;;;;6336600;22;45275;-81
2023/04/02 11:28:37;;;;;;;;;15.00;11.00;;;;;;;;6335799;22;45399;-82
2023/04/02 11:31:03;;;;;;;;;11.75;10.75;;;;;;;;6335711;22;45356;-82
2023/04/02 11:33:34;;;;;;;;;13.67;7.33;;;;;;;;6336024;22;45348;-85
2023/04/02 11:36:00;;;;;;;;;11.25;10.00;;;;;;;;6336345;22;45283;-88
2023/04/02 11:38:26;;;;;;;;;13.50;9.50;;;;;;;;6336825;22;45226;-87
2023/04/02 11:40:53;;;;;;;;;13.00;10.67;;;;;;;;6356328;22;45193;-89
2023/04/02 11:43:31;;;;;;;;;11.50;9.75;;;;;;;;6352869;22;45399;-89
2023/04/02 11:45:57;;;;;;;;;11.25;10.75;;;;;;;;6323653;22;44775;-88
2023/04/02 11:48:22;;;;;;;;;14.50;10.50;;;;;;;;6340261;22;45399;-88
2023/04/02 11:50:47;;;;;;;;;13.00;10.33;;;;;;;;6339654;22;45995;-89
2023/04/02 11:53:19;;;;;;;;;11.67;11.00;;;;;;;;6338335;22;45208;-94
2023/04/02 11:56:04;;;;;;;;;10.00;8.50;;;;;;;;6340405;22;45193;-87
2023/04/02 11:58:41;;;;;;;;;15.00;9.25;;;;;;;;6336903;22;45383;-85
2023/04/02 12:01:25;;;;;;;;;15.75;11.25;;;;;;;;6337245;22;46582;-86
2023/04/02 12:03:56;;;;;;;;;12.75;11.25;;;;;;;;6338205;22;45773;-91
2023/04/02 12:06:24;;;;;;;;;8.75;7.00;;;;;;;;6310851;22;45230;-89
2023/04/02 12:09:04;;;;;;;;;12.50;10.00;;;;;;;;6337272;22;45419;-86
2023/04/02 12:11:37;;;;;;;;;8.50;7.50;;;;;;;;6337592;22;45229;-87
2023/04/02 12:14:23;;;;;;;;;18.25;7.50;;;;;;;;6337119;22;45213;-87
2023/04/02 12:16:48;;;;;;;;;10.25;8.00;;;;;;;;6298634;22;45344;-88
2023/04/02 12:19:15;;;;;;;;;10.00;8.50;;;;;;;;6337604;22;45597;-83
2023/04/02 12:21:46;;;;;;;;;10.00;6.75;;;;;;;;6338539;22;45189;-87
2023/04/02 12:24:16;;;;;;;;;11.00;7.75;;;;;;;;6309446;22;45337;-88
2023/04/02 12:26:45;;;;;;;;;9.50;7.00;;;;;;;;6337591;22;45305;-87
2023/04/02 12:29:13;;;;;;;;;14.25;8.00;;;;;;;;6337280;22;45418;-87
2023/04/02 12:31:46;;;;;;;;;10.25;7.00;;;;;;;;6337992;22;46075;-86
2023/04/02 12:34:16;;;;;;;;;17.00;10.75;;;;;;;;6337298;22;45284;-86
2023/04/02 12:37:04;;;;;;;;;12.50;9.50;;;;;;;;6309747;22;45258;-88
2023/04/02 12:39:30;;;;;;;;;11.75;8.25;;;;;;;;6337531;22;45454;-87
2023/04/02 12:41:56;;;;;;;;;14.75;12.00;;;;;;;;6336694;22;45342;-87
2023/04/02 12:44:23;;;;;;;;;14.75;11.00;;;;;;;;6337868;22;45408;-88
2023/04/02 12:46:48;;;;;;;;;11.25;10.25;;;;;;;;6338617;22;45274;-90
2023/04/02 12:49:34;;;;;;;;;10.00;10.00;;;;;;;;6314299;22;45095;-89
2023/04/02 12:52:07;;;;;;;;;13.50;11.50;;;;;;;;6350050;22;46665;-89
2023/04/02 12:54:35;;;;;;;;;15.75;9.00;;;;;;;;6345629;22;44957;-90
2023/04/02 12:57:22;;;;;;;;;16.50;11.75;;;;;;;;6340717;22;45228;-90
2023/04/02 12:59:47;;;;;;;;;10.00;10.00;;;;;;;;6342832;22;45343;-92
2023/04/02 13:02:20;;;;;;;;;14.00;10.50;;;;;;;;6315783;22;46453;-88
2023/04/02 13:04:49;;;;;;;;;14.75;7.50;;;;;;;;6344029;22;45455;-89
2023/04/02 13:07:16;;;;;;;;;22.00;12.75;;;;;;;;6334266;22;45307;-91
2023/04/02 13:09:46;;;;;;;;;16.75;12.00;;;;;;;;6338739;22;45284;-89
2023/04/02 13:12:23;;;;;;;;;17.75;12.00;;;;;;;;6338576;22;46212;-89
2023/04/02 13:14:53;;;;;;;;;11.50;8.00;;;;;;;;6345989;22;45324;-92
2023/04/02 13:17:37;;;;;;;;;11.00;9.50;;;;;;;;6319654;22;45129;-92
2023/04/02 13:20:20;;;;;;;;;11.75;9.00;;;;;;;;6337610;22;45406;-89
2023/04/02 13:22:46;;;;;;;;;10.25;7.25;;;;;;;;6336741;22;46603;-85
2023/04/02 13:25:11;;;;;;;;;11.67;7.00;;;;;;;;6336840;22;45295;-87
2023/04/02 13:27:36;;;;;;;;;12.33;10.00;;;;;;;;6337624;22;45188;-91
2023/04/02 13:30:09;;;;;;;;;12.50;9.50;;;;;;;;6336609;22;45378;-88
2023/04/02 13:32:35;;;;;;;;;7.75;7.75;;;;;;;;6338080;22;47621;-88
2023/04/02 13:35:00;;;;;;;;;11.50;6.75;;;;;;;;6309418;22;45344;-88
2023/04/02 13:37:25;;;;;;;;;9.50;7.25;;;;;;;;6338066;22;45332;-88
2023/04/02 13:39:50;;;;;;;;;8.33;7.67;;;;;;;;6338018;22;45477;-91
2023/04/02 13:42:16;;;;;;;;;11.00;6.33;;;;;;;;6336833;22;46632;-88
2023/04/02 13:44:42;;;;;;;;;5.25;5.00;;;;;;;;6308809;22;45700;-87
2023/04/02 13:47:12;;;;;;;;;6.00;5.00;;;;;;;;6310246;22;45308;-88
2023/04/02 13:49:37;;;;;;;;;6.00;5.00;;;;;;;;6337297;22;45438;-83
2023/04/02 13:52:04;;;;;;;;;6.25;3.00;;;;;;;;6336100;22;45618;-88
2023/04/02 13:54:36;;;;;;;;;11.75;7.00;;;;;;;;6308319;22;45731;-86
2023/04/02 13:57:01;;;;;;;;;7.25;5.25;;;;;;;;6337277;22;45245;-84
2023/04/02 13:59:27;;;;;;;;;5.00;5.00;;;;;;;;6336441;22;45360;-84
2023/04/02 14:01:55;;;;;;;;;9.25;6.50;;;;;;;;6336700;22;45278;-88
2023/04/02 14:04:23;;;;;;;;;7.75;6.25;;;;;;;;6308785;22;45312;-84
2023/04/02 14:07:03;;;;;;;;;6.00;5.25;;;;;;;;6336821;22;45197;-84
2023/04/02 14:09:36;;;;;;;;;11.00;6.75;;;;;;;;6336088;22;45312;-84
2023/04/02 14:12:04;;;;;;;;;11.75;8.00;;;;;;;;6336794;22;45352;-89
2023/04/02 14:14:32;;;;;;;;;8.50;6.00;;;;;;;;6336337;22;45247;-84
2023/04/02 14:16:57;;;;;;;;;11.00;6.25;;;;;;;;6310556;22;45312;-86
2023/04/02 14:19:25;;;;;;;;;11.33;8.33;;;;;;;;6310632;22;45407;-87
2023/04/02 14:22:06;;;;;;;;;8.25;6.25;;;;;;;;6309057;22;46961;-88
2023/04/02 14:24:37;;;;;;;;;10.50;7.00;;;;;;;;6336746;22;45562;-88
2023/04/02 14:27:23;;;;;;;;;13.75;10.00;;;;;;;;6338071;22;45205;-90
2023/04/02 14:30:10;;;;;;;;;11.00;8.00;;;;;;;;6310155;22;45269;-91
2023/04/02 14:32:42;;;;;;;;;9.50;9.50;;;;;;;;6309141;22;47095;-88
2023/04/02 14:35:10;;;;;;;;;11.00;6.50;;;;;;;;6336840;22;45780;-87
2023/04/02 14:37:57;;;;;;;;;8.25;7.00;;;;;;;;6309249;22;45346;-87
2023/04/02 14:40:28;;;;;;;;;10.00;6.25;;;;;;;;6337392;22;45493;-85
2023/04/02 14:42:53;;;;;;;;;7.75;6.25;;;;;;;;6336696;22;45368;-85
2023/04/02 14:45:18;;;;;;;;;11.50;6.75;;;;;;;;6336805;22;45372;-87
2023/04/02 14:47:46;;;;;;;;;12.00;7.33;;;;;;;;6341645;22;45402;-88
2023/04/02 14:50:28;;;;;;;;;11.00;7.00;;;;;;;;6308778;22;45305;-86
2023/04/02 14:52:56;;;;;;;;;7.25;7.25;;;;;;;;6307860;22;46956;-85